sensor_id;sensor_type;location;lat;lon;timestamp;P1;durP1;ratioP1;P2;durP2;ratioP2
72464;SDS011;60471;52.150;4.508;2023-08-01T00:00:52;16.92;;;4.07;;
72464;SDS011;60471;52.150;4.508;2023-08-01T00:03:18;10.93;;;3.83;;
72464;SDS011;60471;52.150;4.508;2023-08-01T00:05:44;14.60;;;3.83;;
72464;SDS011;60471;52.150;4.508;2023-08-01T00:08:11;18.52;;;4.15;;
72464;SDS011;60471;52.150;4.508;2023-08-01T00:10:38;15.13;;;3.97;;
72464;SDS011;60471;52.150;4.508;2023-08-01T00:13:05;17.58;;;4.55;;
72464;SDS011;60471;52.150;4.508;2023-08-01T00:15:32;15.07;;;4.13;;
72464;SDS011;60471;52.150;4.508;2023-08-01T00:17:58;22.05;;;4.25;;
72464;SDS011;60471;52.150;4.508;2023-08-01T00:20:24;17.42;;;4.03;;
72464;SDS011;60471;52.150;4.508;2023-08-01T00:22:51;14.73;;;4.32;;
72464;SDS011;60471;52.150;4.508;2023-08-01T00:25:17;19.80;;;4.57;;
72464;SDS011;60471;52.150;4.508;2023-08-01T00:27:44;13.27;;;3.92;;
72464;SDS011;60471;52.150;4.508;2023-08-01T00:30:10;20.73;;;4.90;;
72464;SDS011;60471;52.150;4.508;2023-08-01T00:32:37;15.32;;;4.25;;
72464;SDS011;60471;52.150;4.508;2023-08-01T00:35:03;15.77;;;4.53;;
72464;SDS011;60471;52.150;4.508;2023-08-01T00:37:30;17.38;;;4.80;;
72464;SDS011;60471;52.150;4.508;2023-08-01T00:39:56;18.40;;;4.40;;
72464;SDS011;60471;52.150;4.508;2023-08-01T00:42:22;14.43;;;4.40;;
72464;SDS011;60471;52.150;4.508;2023-08-01T00:44:49;17.13;;;4.57;;
72464;SDS011;60471;52.150;4.508;2023-08-01T00:47:16;19.25;;;4.70;;
72464;SDS011;60471;52.150;4.508;2023-08-01T00:49:43;15.10;;;4.60;;
72464;SDS011;60471;52.150;4.508;2023-08-01T00:52:10;22.95;;;5.20;;
72464;SDS011;60471;52.150;4.508;2023-08-01T00:54:36;21.20;;;5.65;;
72464;SDS011;60471;52.150;4.508;2023-08-01T00:57:03;14.93;;;4.55;;
72464;SDS011;60471;52.150;4.508;2023-08-01T00:59:30;20.08;;;4.63;;
72464;SDS011;60471;52.150;4.508;2023-08-01T01:01:58;16.35;;;4.90;;
72464;SDS011;60471;52.150;4.508;2023-08-01T01:04:26;13.85;;;4.28;;
72464;SDS011;60471;52.150;4.508;2023-08-01T01:07:03;18.85;;;4.65;;
72464;SDS011;60471;52.150;4.508;2023-08-01T01:09:32;19.35;;;4.93;;
72464;SDS011;60471;52.150;4.508;2023-08-01T01:11:58;16.45;;;4.85;;
72464;SDS011;60471;52.150;4.508;2023-08-01T01:14:26;14.68;;;4.70;;
72464;SDS011;60471;52.150;4.508;2023-08-01T01:16:54;14.88;;;4.75;;
72464;SDS011;60471;52.150;4.508;2023-08-01T01:19:21;16.88;;;4.80;;
72464;SDS011;60471;52.150;4.508;2023-08-01T01:21:47;18.23;;;4.53;;
72464;SDS011;60471;52.150;4.508;2023-08-01T01:24:15;21.27;;;5.07;;
72464;SDS011;60471;52.150;4.508;2023-08-01T01:26:41;17.77;;;4.70;;
72464;SDS011;60471;52.150;4.508;2023-08-01T01:29:09;15.82;;;4.25;;
72464;SDS011;60471;52.150;4.508;2023-08-01T01:31:37;16.17;;;4.07;;
72464;SDS011;60471;52.150;4.508;2023-08-01T01:34:04;12.98;;;2.85;;
72464;SDS011;60471;52.150;4.508;2023-08-01T01:36:31;14.23;;;2.60;;
72464;SDS011;60471;52.150;4.508;2023-08-01T01:38:57;13.52;;;2.53;;
72464;SDS011;60471;52.150;4.508;2023-08-01T01:41:24;14.32;;;2.60;;
72464;SDS011;60471;52.150;4.508;2023-08-01T01:43:51;17.92;;;2.80;;
72464;SDS011;60471;52.150;4.508;2023-08-01T01:46:17;11.90;;;2.50;;
72464;SDS011;60471;52.150;4.508;2023-08-01T01:48:43;9.20;;;2.20;;
72464;SDS011;60471;52.150;4.508;2023-08-01T01:51:09;11.32;;;2.58;;
72464;SDS011;60471;52.150;4.508;2023-08-01T01:53:35;13.85;;;2.80;;
72464;SDS011;60471;52.150;4.508;2023-08-01T01:56:02;13.63;;;3.45;;
72464;SDS011;60471;52.150;4.508;2023-08-01T01:58:28;12.80;;;3.65;;
72464;SDS011;60471;52.150;4.508;2023-08-01T02:00:54;20.98;;;4.55;;
72464;SDS011;60471;52.150;4.508;2023-08-01T02:03:20;17.40;;;4.30;;
72464;SDS011;60471;52.150;4.508;2023-08-01T02:05:47;16.38;;;4.30;;
72464;SDS011;60471;52.150;4.508;2023-08-01T02:08:13;19.05;;;4.28;;
72464;SDS011;60471;52.150;4.508;2023-08-01T02:10:39;19.65;;;4.53;;
72464;SDS011;60471;52.150;4.508;2023-08-01T02:13:06;19.83;;;4.72;;
72464;SDS011;60471;52.150;4.508;2023-08-01T02:15:34;20.50;;;4.57;;
72464;SDS011;60471;52.150;4.508;2023-08-01T02:18:00;14.95;;;4.18;;
72464;SDS011;60471;52.150;4.508;2023-08-01T02:20:26;23.13;;;5.55;;
72464;SDS011;60471;52.150;4.508;2023-08-01T02:22:54;16.45;;;5.28;;
72464;SDS011;60471;52.150;4.508;2023-08-01T02:25:20;18.77;;;5.45;;
72464;SDS011;60471;52.150;4.508;2023-08-01T02:27:47;17.67;;;4.95;;
72464;SDS011;60471;52.150;4.508;2023-08-01T02:30:13;18.58;;;5.25;;
72464;SDS011;60471;52.150;4.508;2023-08-01T02:32:39;18.55;;;4.90;;
72464;SDS011;60471;52.150;4.508;2023-08-01T02:35:05;18.98;;;4.95;;
72464;SDS011;60471;52.150;4.508;2023-08-01T02:37:32;23.27;;;5.55;;
72464;SDS011;60471;52.150;4.508;2023-08-01T02:39:58;20.05;;;4.80;;
72464;SDS011;60471;52.150;4.508;2023-08-01T02:42:24;16.85;;;4.78;;
72464;SDS011;60471;52.150;4.508;2023-08-01T02:44:51;16.77;;;4.75;;
72464;SDS011;60471;52.150;4.508;2023-08-01T02:47:17;19.88;;;5.22;;
72464;SDS011;60471;52.150;4.508;2023-08-01T02:49:43;24.30;;;5.15;;
72464;SDS011;60471;52.150;4.508;2023-08-01T02:52:09;21.05;;;5.30;;
72464;SDS011;60471;52.150;4.508;2023-08-01T02:54:36;20.80;;;5.45;;
72464;SDS011;60471;52.150;4.508;2023-08-01T02:57:02;18.50;;;5.65;;
72464;SDS011;60471;52.150;4.508;2023-08-01T02:59:28;15.45;;;5.35;;
72464;SDS011;60471;52.150;4.508;2023-08-01T03:01:55;22.98;;;5.32;;
72464;SDS011;60471;52.150;4.508;2023-08-01T03:04:21;20.17;;;5.00;;
72464;SDS011;60471;52.150;4.508;2023-08-01T03:06:47;23.45;;;5.32;;
72464;SDS011;60471;52.150;4.508;2023-08-01T03:09:13;21.63;;;5.55;;
72464;SDS011;60471;52.150;4.508;2023-08-01T03:11:39;18.83;;;5.22;;
72464;SDS011;60471;52.150;4.508;2023-08-01T03:14:06;19.33;;;5.30;;
72464;SDS011;60471;52.150;4.508;2023-08-01T03:16:32;21.95;;;5.22;;
72464;SDS011;60471;52.150;4.508;2023-08-01T03:18:58;23.60;;;6.28;;
72464;SDS011;60471;52.150;4.508;2023-08-01T03:21:33;21.23;;;5.47;;
72464;SDS011;60471;52.150;4.508;2023-08-01T03:24:00;21.17;;;5.88;;
72464;SDS011;60471;52.150;4.508;2023-08-01T03:26:28;25.35;;;6.28;;
72464;SDS011;60471;52.150;4.508;2023-08-01T03:28:55;26.42;;;7.18;;
72464;SDS011;60471;52.150;4.508;2023-08-01T03:31:22;23.35;;;5.53;;
72464;SDS011;60471;52.150;4.508;2023-08-01T03:33:49;21.17;;;5.82;;
72464;SDS011;60471;52.150;4.508;2023-08-01T03:36:15;21.25;;;5.45;;
72464;SDS011;60471;52.150;4.508;2023-08-01T03:38:41;22.15;;;4.78;;
72464;SDS011;60471;52.150;4.508;2023-08-01T03:41:07;18.45;;;5.40;;
72464;SDS011;60471;52.150;4.508;2023-08-01T03:43:33;18.67;;;4.85;;
72464;SDS011;60471;52.150;4.508;2023-08-01T03:46:00;21.92;;;5.22;;
72464;SDS011;60471;52.150;4.508;2023-08-01T03:48:27;20.35;;;4.72;;
72464;SDS011;60471;52.150;4.508;2023-08-01T03:50:53;19.00;;;4.47;;
72464;SDS011;60471;52.150;4.508;2023-08-01T03:53:19;21.48;;;5.32;;
72464;SDS011;60471;52.150;4.508;2023-08-01T03:55:46;21.45;;;6.00;;
72464;SDS011;60471;52.150;4.508;2023-08-01T03:58:14;20.75;;;5.47;;
72464;SDS011;60471;52.150;4.508;2023-08-01T04:00:41;23.38;;;5.38;;
72464;SDS011;60471;52.150;4.508;2023-08-01T04:03:07;21.42;;;5.15;;
72464;SDS011;60471;52.150;4.508;2023-08-01T04:05:33;16.13;;;5.05;;
72464;SDS011;60471;52.150;4.508;2023-08-01T04:07:59;17.98;;;5.22;;
72464;SDS011;60471;52.150;4.508;2023-08-01T04:10:26;16.67;;;4.68;;
72464;SDS011;60471;52.150;4.508;2023-08-01T04:12:52;27.10;;;5.45;;
72464;SDS011;60471;52.150;4.508;2023-08-01T04:15:18;19.27;;;4.95;;
72464;SDS011;60471;52.150;4.508;2023-08-01T04:17:45;20.45;;;4.30;;
72464;SDS011;60471;52.150;4.508;2023-08-01T04:20:11;23.38;;;5.25;;
72464;SDS011;60471;52.150;4.508;2023-08-01T04:22:38;22.25;;;4.47;;
72464;SDS011;60471;52.150;4.508;2023-08-01T04:25:04;16.42;;;3.95;;
72464;SDS011;60471;52.150;4.508;2023-08-01T04:27:31;19.85;;;4.32;;
72464;SDS011;60471;52.150;4.508;2023-08-01T04:29:57;12.32;;;3.88;;
72464;SDS011;60471;52.150;4.508;2023-08-01T04:32:24;14.93;;;4.60;;
72464;SDS011;60471;52.150;4.508;2023-08-01T04:34:50;14.90;;;4.18;;
72464;SDS011;60471;52.150;4.508;2023-08-01T04:37:16;15.32;;;3.80;;
72464;SDS011;60471;52.150;4.508;2023-08-01T04:39:46;21.38;;;3.80;;
72464;SDS011;60471;52.150;4.508;2023-08-01T04:42:12;15.50;;;4.13;;
72464;SDS011;60471;52.150;4.508;2023-08-01T04:44:39;16.48;;;3.33;;
72464;SDS011;60471;52.150;4.508;2023-08-01T04:47:05;13.43;;;3.50;;
72464;SDS011;60471;52.150;4.508;2023-08-01T04:49:31;15.70;;;3.65;;
72464;SDS011;60471;52.150;4.508;2023-08-01T04:51:57;18.50;;;3.85;;
72464;SDS011;60471;52.150;4.508;2023-08-01T04:54:24;15.27;;;3.60;;
72464;SDS011;60471;52.150;4.508;2023-08-01T04:56:50;12.32;;;3.25;;
72464;SDS011;60471;52.150;4.508;2023-08-01T04:59:16;13.80;;;3.65;;
72464;SDS011;60471;52.150;4.508;2023-08-01T05:01:42;17.63;;;4.18;;
72464;SDS011;60471;52.150;4.508;2023-08-01T05:04:09;15.55;;;3.47;;
72464;SDS011;60471;52.150;4.508;2023-08-01T05:06:35;15.93;;;3.28;;
72464;SDS011;60471;52.150;4.508;2023-08-01T05:09:02;13.55;;;3.28;;
72464;SDS011;60471;52.150;4.508;2023-08-01T05:11:28;16.38;;;3.50;;
72464;SDS011;60471;52.150;4.508;2023-08-01T05:13:54;14.25;;;3.65;;
72464;SDS011;60471;52.150;4.508;2023-08-01T05:16:21;18.35;;;4.07;;
72464;SDS011;60471;52.150;4.508;2023-08-01T05:18:47;17.48;;;3.92;;
72464;SDS011;60471;52.150;4.508;2023-08-01T05:21:13;17.75;;;4.15;;
72464;SDS011;60471;52.150;4.508;2023-08-01T05:23:39;17.40;;;3.92;;
72464;SDS011;60471;52.150;4.508;2023-08-01T05:26:05;17.30;;;4.43;;
72464;SDS011;60471;52.150;4.508;2023-08-01T05:28:31;17.13;;;3.55;;
72464;SDS011;60471;52.150;4.508;2023-08-01T05:30:58;12.05;;;3.80;;
72464;SDS011;60471;52.150;4.508;2023-08-01T05:33:24;16.70;;;3.60;;
72464;SDS011;60471;52.150;4.508;2023-08-01T05:35:50;13.57;;;3.15;;
72464;SDS011;60471;52.150;4.508;2023-08-01T05:38:17;15.75;;;3.50;;
72464;SDS011;60471;52.150;4.508;2023-08-01T05:40:43;14.45;;;3.50;;
72464;SDS011;60471;52.150;4.508;2023-08-01T05:43:09;20.00;;;3.35;;
72464;SDS011;60471;52.150;4.508;2023-08-01T05:45:35;18.33;;;3.85;;
72464;SDS011;60471;52.150;4.508;2023-08-01T05:48:02;17.05;;;3.60;;
72464;SDS011;60471;52.150;4.508;2023-08-01T05:50:28;14.90;;;2.97;;
72464;SDS011;60471;52.150;4.508;2023-08-01T05:52:54;11.93;;;3.10;;
72464;SDS011;60471;52.150;4.508;2023-08-01T05:55:21;16.85;;;3.65;;
72464;SDS011;60471;52.150;4.508;2023-08-01T05:57:47;15.82;;;3.67;;
72464;SDS011;60471;52.150;4.508;2023-08-01T06:00:14;19.30;;;3.60;;
72464;SDS011;60471;52.150;4.508;2023-08-01T06:02:41;13.45;;;3.10;;
72464;SDS011;60471;52.150;4.508;2023-08-01T06:05:07;14.18;;;3.42;;
72464;SDS011;60471;52.150;4.508;2023-08-01T06:07:34;12.07;;;3.15;;
72464;SDS011;60471;52.150;4.508;2023-08-01T06:10:00;13.80;;;3.25;;
72464;SDS011;60471;52.150;4.508;2023-08-01T06:12:26;15.32;;;3.40;;
72464;SDS011;60471;52.150;4.508;2023-08-01T06:14:53;10.30;;;3.17;;
72464;SDS011;60471;52.150;4.508;2023-08-01T06:17:19;13.35;;;3.33;;
72464;SDS011;60471;52.150;4.508;2023-08-01T06:19:45;13.48;;;3.22;;
72464;SDS011;60471;52.150;4.508;2023-08-01T06:22:12;17.27;;;3.25;;
72464;SDS011;60471;52.150;4.508;2023-08-01T06:24:38;15.52;;;4.18;;
72464;SDS011;60471;52.150;4.508;2023-08-01T06:27:04;17.08;;;3.60;;
72464;SDS011;60471;52.150;4.508;2023-08-01T06:29:31;16.55;;;3.70;;
72464;SDS011;60471;52.150;4.508;2023-08-01T06:31:57;18.98;;;4.43;;
72464;SDS011;60471;52.150;4.508;2023-08-01T06:34:23;15.57;;;3.78;;
72464;SDS011;60471;52.150;4.508;2023-08-01T06:36:50;17.35;;;3.75;;
72464;SDS011;60471;52.150;4.508;2023-08-01T06:39:17;12.63;;;3.92;;
72464;SDS011;60471;52.150;4.508;2023-08-01T06:41:43;16.88;;;3.92;;
72464;SDS011;60471;52.150;4.508;2023-08-01T06:44:09;14.40;;;3.50;;
72464;SDS011;60471;52.150;4.508;2023-08-01T06:46:35;21.40;;;4.57;;
72464;SDS011;60471;52.150;4.508;2023-08-01T06:49:01;16.20;;;3.40;;
72464;SDS011;60471;52.150;4.508;2023-08-01T06:51:28;19.02;;;3.75;;
72464;SDS011;60471;52.150;4.508;2023-08-01T06:53:54;15.73;;;3.35;;
72464;SDS011;60471;52.150;4.508;2023-08-01T06:56:20;15.18;;;3.20;;
72464;SDS011;60471;52.150;4.508;2023-08-01T06:58:47;17.85;;;4.13;;
72464;SDS011;60471;52.150;4.508;2023-08-01T07:01:14;15.23;;;3.67;;
72464;SDS011;60471;52.150;4.508;2023-08-01T07:03:40;13.85;;;3.50;;
72464;SDS011;60471;52.150;4.508;2023-08-01T07:06:06;15.70;;;3.50;;
72464;SDS011;60471;52.150;4.508;2023-08-01T07:08:32;10.15;;;2.72;;
72464;SDS011;60471;52.150;4.508;2023-08-01T07:10:59;14.52;;;3.10;;
72464;SDS011;60471;52.150;4.508;2023-08-01T07:13:25;14.57;;;3.10;;
72464;SDS011;60471;52.150;4.508;2023-08-01T07:15:51;17.80;;;3.63;;
72464;SDS011;60471;52.150;4.508;2023-08-01T07:18:18;16.92;;;3.40;;
72464;SDS011;60471;52.150;4.508;2023-08-01T07:20:44;16.77;;;3.42;;
72464;SDS011;60471;52.150;4.508;2023-08-01T07:23:10;16.55;;;3.20;;
72464;SDS011;60471;52.150;4.508;2023-08-01T07:25:37;9.93;;;2.92;;
72464;SDS011;60471;52.150;4.508;2023-08-01T07:28:03;10.70;;;2.75;;
72464;SDS011;60471;52.150;4.508;2023-08-01T07:30:29;13.32;;;2.85;;
72464;SDS011;60471;52.150;4.508;2023-08-01T07:32:55;14.40;;;3.28;;
72464;SDS011;60471;52.150;4.508;2023-08-01T07:35:22;12.00;;;2.67;;
72464;SDS011;60471;52.150;4.508;2023-08-01T07:37:48;16.95;;;3.22;;
72464;SDS011;60471;52.150;4.508;2023-08-01T07:40:14;15.35;;;3.47;;
72464;SDS011;60471;52.150;4.508;2023-08-01T07:42:40;14.57;;;3.15;;
72464;SDS011;60471;52.150;4.508;2023-08-01T07:45:07;15.27;;;3.60;;
72464;SDS011;60471;52.150;4.508;2023-08-01T07:47:34;15.40;;;2.90;;
72464;SDS011;60471;52.150;4.508;2023-08-01T07:50:00;13.27;;;2.90;;
72464;SDS011;60471;52.150;4.508;2023-08-01T07:52:26;12.43;;;2.88;;
72464;SDS011;60471;52.150;4.508;2023-08-01T07:54:52;15.18;;;3.13;;
72464;SDS011;60471;52.150;4.508;2023-08-01T07:57:19;12.40;;;3.67;;
72464;SDS011;60471;52.150;4.508;2023-08-01T07:59:45;17.60;;;3.35;;
72464;SDS011;60471;52.150;4.508;2023-08-01T08:02:11;16.73;;;3.50;;
72464;SDS011;60471;52.150;4.508;2023-08-01T08:04:38;20.23;;;3.00;;
72464;SDS011;60471;52.150;4.508;2023-08-01T08:07:04;18.65;;;3.58;;
72464;SDS011;60471;52.150;4.508;2023-08-01T08:09:31;15.30;;;3.67;;
72464;SDS011;60471;52.150;4.508;2023-08-01T08:11:57;13.10;;;3.40;;
72464;SDS011;60471;52.150;4.508;2023-08-01T08:14:23;14.02;;;2.85;;
72464;SDS011;60471;52.150;4.508;2023-08-01T08:16:50;13.43;;;3.30;;
72464;SDS011;60471;52.150;4.508;2023-08-01T08:19:16;14.40;;;2.80;;
72464;SDS011;60471;52.150;4.508;2023-08-01T08:21:43;17.25;;;3.53;;
72464;SDS011;60471;52.150;4.508;2023-08-01T08:24:09;16.58;;;3.60;;
72464;SDS011;60471;52.150;4.508;2023-08-01T08:26:35;15.40;;;3.85;;
72464;SDS011;60471;52.150;4.508;2023-08-01T08:29:05;14.48;;;3.47;;
72464;SDS011;60471;52.150;4.508;2023-08-01T08:31:31;16.80;;;3.78;;
72464;SDS011;60471;52.150;4.508;2023-08-01T08:33:57;17.65;;;3.45;;
72464;SDS011;60471;52.150;4.508;2023-08-01T08:36:23;11.80;;;3.25;;
72464;SDS011;60471;52.150;4.508;2023-08-01T08:38:50;15.35;;;3.22;;
72464;SDS011;60471;52.150;4.508;2023-08-01T08:41:22;13.30;;;3.53;;
72464;SDS011;60471;52.150;4.508;2023-08-01T08:43:55;14.32;;;3.38;;
72464;SDS011;60471;52.150;4.508;2023-08-01T08:46:25;15.65;;;3.67;;
72464;SDS011;60471;52.150;4.508;2023-08-01T08:48:56;16.05;;;3.67;;
72464;SDS011;60471;52.150;4.508;2023-08-01T08:51:23;13.88;;;3.45;;
72464;SDS011;60471;52.150;4.508;2023-08-01T08:53:53;15.48;;;2.95;;
72464;SDS011;60471;52.150;4.508;2023-08-01T08:56:22;16.98;;;3.90;;
72464;SDS011;60471;52.150;4.508;2023-08-01T08:58:49;14.05;;;3.00;;
72464;SDS011;60471;52.150;4.508;2023-08-01T09:01:17;12.57;;;2.65;;
72464;SDS011;60471;52.150;4.508;2023-08-01T09:03:44;14.63;;;2.88;;
72464;SDS011;60471;52.150;4.508;2023-08-01T09:06:12;11.95;;;2.78;;
72464;SDS011;60471;52.150;4.508;2023-08-01T09:08:55;13.48;;;2.97;;
72464;SDS011;60471;52.150;4.508;2023-08-01T09:11:28;16.13;;;3.70;;
72464;SDS011;60471;52.150;4.508;2023-08-01T09:13:54;14.95;;;3.00;;
72464;SDS011;60471;52.150;4.508;2023-08-01T09:16:21;11.48;;;2.50;;
72464;SDS011;60471;52.150;4.508;2023-08-01T09:18:48;12.50;;;2.80;;
72464;SDS011;60471;52.150;4.508;2023-08-01T09:21:20;12.25;;;3.33;;
72464;SDS011;60471;52.150;4.508;2023-08-01T09:23:48;14.65;;;3.17;;
72464;SDS011;60471;52.150;4.508;2023-08-01T09:26:15;12.30;;;3.20;;
72464;SDS011;60471;52.150;4.508;2023-08-01T09:28:42;16.08;;;3.08;;
72464;SDS011;60471;52.150;4.508;2023-08-01T09:31:10;19.08;;;3.08;;
72464;SDS011;60471;52.150;4.508;2023-08-01T09:33:38;14.30;;;2.90;;
72464;SDS011;60471;52.150;4.508;2023-08-01T09:36:08;13.30;;;3.03;;
72464;SDS011;60471;52.150;4.508;2023-08-01T09:38:37;12.90;;;3.00;;
72464;SDS011;60471;52.150;4.508;2023-08-01T09:41:04;9.50;;;2.60;;
72464;SDS011;60471;52.150;4.508;2023-08-01T09:43:33;13.13;;;3.10;;
72464;SDS011;60471;52.150;4.508;2023-08-01T09:46:06;15.65;;;3.38;;
72464;SDS011;60471;52.150;4.508;2023-08-01T09:48:32;14.73;;;3.28;;
72464;SDS011;60471;52.150;4.508;2023-08-01T09:53:32;15.65;;;3.50;;
72464;SDS011;60471;52.150;4.508;2023-08-01T09:55:59;15.18;;;3.20;;
72464;SDS011;60471;52.150;4.508;2023-08-01T09:58:31;13.07;;;3.30;;
72464;SDS011;60471;52.150;4.508;2023-08-01T10:01:02;17.08;;;3.08;;
72464;SDS011;60471;52.150;4.508;2023-08-01T10:03:29;16.85;;;4.60;;
72464;SDS011;60471;52.150;4.508;2023-08-01T10:05:56;20.33;;;3.38;;
72464;SDS011;60471;52.150;4.508;2023-08-01T10:08:24;13.98;;;2.75;;
72464;SDS011;60471;52.150;4.508;2023-08-01T10:10:53;11.45;;;2.50;;
72464;SDS011;60471;52.150;4.508;2023-08-01T10:13:23;13.23;;;2.83;;
72464;SDS011;60471;52.150;4.508;2023-08-01T10:15:53;15.68;;;3.20;;
72464;SDS011;60471;52.150;4.508;2023-08-01T10:18:20;10.57;;;2.92;;
72464;SDS011;60471;52.150;4.508;2023-08-01T10:20:47;14.02;;;2.92;;
72464;SDS011;60471;52.150;4.508;2023-08-01T10:23:15;17.33;;;3.20;;
72464;SDS011;60471;52.150;4.508;2023-08-01T10:25:43;15.88;;;3.38;;
72464;SDS011;60471;52.150;4.508;2023-08-01T10:28:11;20.23;;;3.22;;
72464;SDS011;60471;52.150;4.508;2023-08-01T10:30:37;14.02;;;2.72;;
72464;SDS011;60471;52.150;4.508;2023-08-01T10:33:03;14.23;;;3.03;;
72464;SDS011;60471;52.150;4.508;2023-08-01T10:38:12;11.68;;;2.47;;
72464;SDS011;60471;52.150;4.508;2023-08-01T10:40:39;17.05;;;3.20;;
72464;SDS011;60471;52.150;4.508;2023-08-01T10:43:21;11.73;;;3.10;;
72464;SDS011;60471;52.150;4.508;2023-08-01T10:45:48;13.05;;;2.65;;
72464;SDS011;60471;52.150;4.508;2023-08-01T10:48:27;13.30;;;2.97;;
72464;SDS011;60471;52.150;4.508;2023-08-01T10:50:56;17.45;;;3.15;;
72464;SDS011;60471;52.150;4.508;2023-08-01T10:53:23;13.38;;;2.90;;
72464;SDS011;60471;52.150;4.508;2023-08-01T10:55:49;13.50;;;3.05;;
72464;SDS011;60471;52.150;4.508;2023-08-01T10:58:15;10.95;;;2.45;;
72464;SDS011;60471;52.150;4.508;2023-08-01T11:00:42;18.25;;;3.25;;
72464;SDS011;60471;52.150;4.508;2023-08-01T11:03:08;17.15;;;3.40;;
72464;SDS011;60471;52.150;4.508;2023-08-01T11:05:35;15.35;;;3.00;;
72464;SDS011;60471;52.150;4.508;2023-08-01T11:08:01;20.48;;;3.03;;
72464;SDS011;60471;52.150;4.508;2023-08-01T11:10:30;15.10;;;2.85;;
72464;SDS011;60471;52.150;4.508;2023-08-01T11:12:58;14.13;;;2.50;;
72464;SDS011;60471;52.150;4.508;2023-08-01T11:15:26;15.52;;;2.63;;
72464;SDS011;60471;52.150;4.508;2023-08-01T11:17:53;17.73;;;2.70;;
72464;SDS011;60471;52.150;4.508;2023-08-01T11:20:21;11.98;;;2.58;;
72464;SDS011;60471;52.150;4.508;2023-08-01T11:25:33;14.27;;;2.75;;
72464;SDS011;60471;52.150;4.508;2023-08-01T11:28:03;14.18;;;2.90;;
72464;SDS011;60471;52.150;4.508;2023-08-01T11:30:33;17.35;;;2.85;;
72464;SDS011;60471;52.150;4.508;2023-08-01T11:33:00;12.90;;;2.17;;
72464;SDS011;60471;52.150;4.508;2023-08-01T11:35:28;14.30;;;2.50;;
72464;SDS011;60471;52.150;4.508;2023-08-01T11:37:55;15.93;;;2.40;;
72464;SDS011;60471;52.150;4.508;2023-08-01T11:40:22;10.05;;;2.10;;
72464;SDS011;60471;52.150;4.508;2023-08-01T11:42:49;12.20;;;2.15;;
72464;SDS011;60471;52.150;4.508;2023-08-01T11:45:19;15.15;;;2.60;;
72464;SDS011;60471;52.150;4.508;2023-08-01T11:47:46;14.73;;;2.28;;
72464;SDS011;60471;52.150;4.508;2023-08-01T11:50:14;9.38;;;2.25;;
72464;SDS011;60471;52.150;4.508;2023-08-01T11:52:47;17.00;;;3.55;;
72464;SDS011;60471;52.150;4.508;2023-08-01T11:58:00;15.68;;;3.45;;
72464;SDS011;60471;52.150;4.508;2023-08-01T12:00:27;16.73;;;2.92;;
72464;SDS011;60471;52.150;4.508;2023-08-01T12:03:12;17.13;;;4.13;;
72464;SDS011;60471;52.150;4.508;2023-08-01T12:05:40;18.90;;;3.28;;
72464;SDS011;60471;52.150;4.508;2023-08-01T12:08:07;13.80;;;2.80;;
72464;SDS011;60471;52.150;4.508;2023-08-01T12:10:42;17.10;;;2.88;;
72464;SDS011;60471;52.150;4.508;2023-08-01T12:13:24;13.57;;;3.00;;
72464;SDS011;60471;52.150;4.508;2023-08-01T12:15:52;13.65;;;2.75;;
72464;SDS011;60471;52.150;4.508;2023-08-01T12:18:22;13.60;;;2.97;;
72464;SDS011;60471;52.150;4.508;2023-08-01T12:20:50;14.13;;;2.88;;
72464;SDS011;60471;52.150;4.508;2023-08-01T12:23:17;15.15;;;2.55;;
72464;SDS011;60471;52.150;4.508;2023-08-01T12:25:44;14.45;;;2.67;;
72464;SDS011;60471;52.150;4.508;2023-08-01T12:28:13;18.35;;;3.00;;
72464;SDS011;60471;52.150;4.508;2023-08-01T12:30:40;12.55;;;2.20;;
72464;SDS011;60471;52.150;4.508;2023-08-01T12:33:07;9.77;;;2.10;;
72464;SDS011;60471;52.150;4.508;2023-08-01T12:35:38;14.50;;;3.00;;
72464;SDS011;60471;52.150;4.508;2023-08-01T12:40:33;13.73;;;3.28;;
72464;SDS011;60471;52.150;4.508;2023-08-01T12:43:00;11.95;;;2.50;;
72464;SDS011;60471;52.150;4.508;2023-08-01T12:45:26;10.93;;;2.33;;
72464;SDS011;60471;52.150;4.508;2023-08-01T12:47:52;11.90;;;2.60;;
72464;SDS011;60471;52.150;4.508;2023-08-01T12:50:18;11.65;;;2.45;;
72464;SDS011;60471;52.150;4.508;2023-08-01T12:52:44;15.75;;;2.70;;
72464;SDS011;60471;52.150;4.508;2023-08-01T12:55:11;15.07;;;2.45;;
72464;SDS011;60471;52.150;4.508;2023-08-01T12:57:37;19.58;;;2.75;;
72464;SDS011;60471;52.150;4.508;2023-08-01T13:00:03;16.10;;;2.55;;
72464;SDS011;60471;52.150;4.508;2023-08-01T13:02:31;12.23;;;2.90;;
72464;SDS011;60471;52.150;4.508;2023-08-01T13:04:57;12.23;;;2.53;;
72464;SDS011;60471;52.150;4.508;2023-08-01T13:07:23;12.40;;;2.35;;
72464;SDS011;60471;52.150;4.508;2023-08-01T13:09:49;12.63;;;2.72;;
72464;SDS011;60471;52.150;4.508;2023-08-01T13:12:15;15.77;;;2.45;;
72464;SDS011;60471;52.150;4.508;2023-08-01T13:14:41;14.00;;;2.58;;
72464;SDS011;60471;52.150;4.508;2023-08-01T13:17:08;12.85;;;2.60;;
72464;SDS011;60471;52.150;4.508;2023-08-01T13:19:34;17.35;;;2.65;;
72464;SDS011;60471;52.150;4.508;2023-08-01T13:22:00;15.82;;;3.28;;
72464;SDS011;60471;52.150;4.508;2023-08-01T13:24:27;18.05;;;2.83;;
72464;SDS011;60471;52.150;4.508;2023-08-01T13:26:53;14.18;;;3.03;;
72464;SDS011;60471;52.150;4.508;2023-08-01T13:29:19;16.05;;;2.70;;
72464;SDS011;60471;52.150;4.508;2023-08-01T13:31:46;14.15;;;2.67;;
72464;SDS011;60471;52.150;4.508;2023-08-01T13:34:12;15.48;;;3.35;;
72464;SDS011;60471;52.150;4.508;2023-08-01T13:36:38;13.30;;;2.90;;
72464;SDS011;60471;52.150;4.508;2023-08-01T13:39:04;14.73;;;2.70;;
72464;SDS011;60471;52.150;4.508;2023-08-01T13:41:31;15.10;;;2.40;;
72464;SDS011;60471;52.150;4.508;2023-08-01T13:43:59;15.55;;;2.83;;
72464;SDS011;60471;52.150;4.508;2023-08-01T13:46:25;13.82;;;2.58;;
72464;SDS011;60471;52.150;4.508;2023-08-01T13:48:51;12.18;;;2.55;;
72464;SDS011;60471;52.150;4.508;2023-08-01T13:51:17;10.77;;;2.47;;
72464;SDS011;60471;52.150;4.508;2023-08-01T13:53:44;15.73;;;2.95;;
72464;SDS011;60471;52.150;4.508;2023-08-01T13:56:10;15.65;;;2.60;;
72464;SDS011;60471;52.150;4.508;2023-08-01T13:58:37;15.70;;;2.80;;
72464;SDS011;60471;52.150;4.508;2023-08-01T14:01:08;15.55;;;3.08;;
72464;SDS011;60471;52.150;4.508;2023-08-01T14:03:38;17.55;;;3.08;;
72464;SDS011;60471;52.150;4.508;2023-08-01T14:06:05;15.10;;;2.92;;
72464;SDS011;60471;52.150;4.508;2023-08-01T14:08:33;13.90;;;2.35;;
72464;SDS011;60471;52.150;4.508;2023-08-01T14:11:04;15.60;;;2.85;;
72464;SDS011;60471;52.150;4.508;2023-08-01T14:13:32;11.73;;;2.75;;
72464;SDS011;60471;52.150;4.508;2023-08-01T14:15:59;15.82;;;2.70;;
72464;SDS011;60471;52.150;4.508;2023-08-01T14:18:30;16.90;;;3.13;;
72464;SDS011;60471;52.150;4.508;2023-08-01T14:20:56;10.75;;;2.50;;
72464;SDS011;60471;52.150;4.508;2023-08-01T14:23:22;21.80;;;3.35;;
72464;SDS011;60471;52.150;4.508;2023-08-01T14:25:49;23.48;;;3.58;;
72464;SDS011;60471;52.150;4.508;2023-08-01T14:28:15;16.30;;;2.85;;
72464;SDS011;60471;52.150;4.508;2023-08-01T14:30:41;14.73;;;2.95;;
72464;SDS011;60471;52.150;4.508;2023-08-01T14:33:08;21.33;;;3.28;;
72464;SDS011;60471;52.150;4.508;2023-08-01T14:35:35;17.25;;;2.80;;
72464;SDS011;60471;52.150;4.508;2023-08-01T14:38:02;13.27;;;2.60;;
72464;SDS011;60471;52.150;4.508;2023-08-01T14:40:30;12.43;;;1.92;;
72464;SDS011;60471;52.150;4.508;2023-08-01T14:42:56;9.45;;;1.80;;
72464;SDS011;60471;52.150;4.508;2023-08-01T14:45:22;11.25;;;2.40;;
72464;SDS011;60471;52.150;4.508;2023-08-01T14:47:49;10.20;;;1.85;;